createdAt,value
2019-03-09T00:00:02.635Z,0.00
2019-03-09T00:01:02.598Z,0.00
2019-03-09T00:02:02.625Z,0.00
2019-03-09T00:03:02.609Z,0.00
2019-03-09T00:04:02.566Z,0.00
2019-03-09T00:05:02.520Z,0.00
2019-03-09T00:06:02.578Z,0.00
2019-03-09T00:07:02.494Z,0.00
2019-03-09T00:08:02.481Z,0.00
2019-03-09T00:09:02.468Z,0.00
2019-03-09T00:10:02.466Z,0.00
2019-03-09T00:11:07.332Z,0.00
2019-03-09T00:12:02.439Z,0.00
2019-03-09T00:13:02.424Z,0.00
2019-03-09T00:14:02.432Z,0.00
2019-03-09T00:15:02.406Z,0.00
2019-03-09T00:16:02.389Z,0.00
2019-03-09T00:17:02.424Z,0.00
2019-03-09T00:18:02.384Z,0.00
2019-03-09T00:19:02.371Z,0.00
2019-03-09T00:20:02.377Z,0.00
2019-03-09T00:21:02.363Z,0.00
2019-03-09T00:22:02.394Z,0.00
2019-03-09T00:23:02.326Z,0.00
2019-03-09T00:24:02.312Z,0.00
2019-03-09T00:25:02.290Z,0.00
2019-03-09T00:26:03.209Z,0.00
2019-03-09T00:27:02.312Z,0.00
2019-03-09T00:28:02.251Z,0.00
2019-03-09T00:29:02.449Z,0.00
2019-03-09T00:30:02.241Z,0.00
2019-03-09T00:31:02.222Z,0.00
2019-03-09T00:32:02.284Z,0.00
2019-03-09T00:33:02.207Z,0.00
2019-03-09T00:34:02.187Z,0.00
2019-03-09T00:35:02.182Z,0.00
2019-03-09T00:36:02.193Z,0.00
2019-03-09T00:37:02.204Z,0.00
2019-03-09T00:38:02.173Z,0.00
2019-03-09T00:39:02.136Z,0.00
2019-03-09T00:40:02.149Z,0.00
2019-03-09T00:41:02.118Z,0.00
2019-03-09T00:42:02.144Z,0.00
2019-03-09T00:43:02.114Z,0.00
2019-03-09T00:44:02.092Z,0.00
2019-03-09T00:45:02.108Z,0.00
2019-03-09T00:46:02.078Z,0.00
2019-03-09T00:47:03.866Z,0.00
2019-03-09T00:48:02.045Z,0.00
2019-03-09T00:49:02.021Z,0.00
2019-03-09T00:50:02.106Z,0.00
2019-03-09T00:51:02.008Z,0.00
2019-03-09T00:52:05.205Z,0.00
2019-03-09T00:53:02.001Z,0.00
2019-03-09T00:54:01.971Z,0.00
2019-03-09T00:55:02.060Z,0.00
2019-03-09T00:56:01.955Z,0.00
2019-03-09T00:57:02.070Z,0.00
2019-03-09T00:58:05.215Z,0.00
2019-03-09T00:59:01.936Z,0.00
2019-03-09T01:00:01.929Z,0.00
2019-03-09T01:01:01.916Z,0.00
2019-03-09T01:02:02.124Z,0.00
2019-03-09T01:03:01.942Z,0.00
2019-03-09T01:04:01.875Z,0.00
2019-03-09T01:05:01.844Z,0.00
2019-03-09T01:06:01.836Z,0.00
2019-03-09T01:07:01.822Z,0.00
2019-03-09T01:08:01.871Z,0.00
2019-03-09T01:09:01.859Z,0.00
2019-03-09T01:10:01.791Z,0.00
2019-03-09T01:11:01.781Z,0.00
2019-03-09T01:12:01.794Z,0.00
2019-03-09T01:13:01.905Z,0.00
2019-03-09T01:14:01.749Z,0.00
2019-03-09T01:15:01.738Z,0.00
2019-03-09T01:16:01.732Z,0.00
2019-03-09T01:17:02.693Z,0.00
2019-03-09T01:18:02.440Z,0.00
2019-03-09T01:19:01.686Z,0.00
2019-03-09T01:20:01.692Z,0.00
2019-03-09T01:21:01.670Z,0.00
2019-03-09T01:22:01.660Z,0.00
2019-03-09T01:23:03.236Z,0.00
2019-03-09T01:24:01.835Z,0.00
2019-03-09T01:25:01.650Z,0.00
2019-03-09T01:26:01.611Z,0.00
2019-03-09T01:27:01.669Z,0.00
2019-03-09T01:28:01.716Z,0.00
2019-03-09T01:29:02.363Z,0.00
2019-03-09T01:30:01.583Z,0.00
2019-03-09T01:31:01.553Z,0.00
2019-03-09T01:32:01.546Z,0.00
2019-03-09T01:33:01.791Z,0.00
2019-03-09T01:34:04.211Z,0.00
2019-03-09T01:35:02.388Z,0.00
2019-03-09T01:36:01.531Z,0.00
2019-03-09T01:37:01.602Z,0.00
2019-03-09T01:38:01.583Z,0.00
2019-03-09T01:39:02.514Z,0.00
2019-03-09T01:40:01.461Z,0.00
2019-03-09T01:41:02.277Z,0.00
2019-03-09T01:42:01.457Z,0.00
2019-03-09T01:43:01.453Z,0.00
2019-03-09T01:44:02.390Z,0.00
2019-03-09T01:45:01.519Z,0.00
2019-03-09T01:46:01.394Z,0.00
2019-03-09T01:47:06.290Z,0.00
2019-03-09T01:48:02.321Z,0.00
2019-03-09T01:49:11.865Z,0.00
2019-03-09T01:50:01.471Z,0.00
2019-03-09T01:51:01.448Z,0.00
2019-03-09T01:52:02.299Z,0.00
2019-03-09T01:53:01.348Z,0.00
2019-03-09T01:54:01.310Z,0.00
2019-03-09T01:55:01.343Z,0.00
2019-03-09T01:56:01.295Z,0.00
2019-03-09T01:57:02.313Z,0.00
2019-03-09T01:58:01.379Z,0.00
2019-03-09T01:59:01.295Z,0.00
2019-03-09T02:00:01.281Z,0.00
2019-03-09T02:01:01.232Z,0.00
2019-03-09T02:02:01.222Z,0.00
2019-03-09T02:03:01.209Z,0.00
2019-03-09T02:04:01.255Z,0.00
2019-03-09T02:05:02.876Z,0.00
2019-03-09T02:06:01.492Z,0.00
2019-03-09T02:07:01.178Z,0.00
2019-03-09T02:08:01.193Z,0.00
2019-03-09T02:09:01.733Z,0.00
2019-03-09T02:10:02.868Z,0.00
2019-03-09T02:11:02.157Z,0.00
2019-03-09T02:12:01.151Z,0.00
2019-03-09T02:13:01.104Z,0.00
2019-03-09T02:14:01.091Z,0.00
2019-03-09T02:15:01.075Z,0.00
2019-03-09T02:16:01.133Z,0.00
2019-03-09T02:17:01.132Z,0.00
2019-03-09T02:18:01.037Z,0.00
2019-03-09T02:19:01.049Z,0.00
2019-03-09T02:20:01.181Z,0.00
2019-03-09T02:21:01.049Z,0.00
2019-03-09T02:22:00.999Z,0.00
2019-03-09T02:23:00.986Z,0.00
2019-03-09T02:24:03.699Z,0.00
2019-03-09T02:25:00.974Z,0.00
2019-03-09T02:26:00.988Z,0.00
2019-03-09T02:27:00.976Z,0.00
2019-03-09T02:28:01.929Z,0.00
2019-03-09T02:29:01.702Z,0.00
2019-03-09T02:30:01.010Z,0.00
2019-03-09T02:31:04.236Z,0.00
2019-03-09T02:32:01.200Z,0.00
2019-03-09T02:33:00.883Z,0.00
2019-03-09T02:34:00.889Z,0.00
2019-03-09T02:35:01.738Z,0.00
2019-03-09T02:36:01.892Z,0.00
2019-03-09T02:37:00.835Z,0.00
2019-03-09T02:38:00.922Z,0.00
2019-03-09T02:39:00.833Z,0.00
2019-03-09T02:40:00.802Z,0.00
2019-03-09T02:41:02.383Z,0.00
2019-03-09T02:42:05.697Z,0.00
2019-03-09T02:43:01.759Z,0.00
2019-03-09T02:44:00.842Z,0.00
2019-03-09T02:45:00.790Z,0.00
2019-03-09T02:46:00.733Z,0.00
2019-03-09T02:47:06.012Z,0.00
2019-03-09T02:48:00.801Z,0.00
2019-03-09T02:49:00.716Z,0.00
2019-03-09T02:50:00.706Z,0.00
2019-03-09T02:51:00.679Z,0.00
2019-03-09T02:52:00.800Z,0.00
2019-03-09T02:53:00.675Z,0.00
2019-03-09T02:54:00.845Z,0.00
2019-03-09T02:55:00.660Z,0.00
2019-03-09T02:56:00.824Z,0.00
2019-03-09T02:57:00.648Z,0.00
2019-03-09T02:58:00.715Z,0.00
2019-03-09T02:59:00.612Z,0.00
2019-03-09T03:00:01.415Z,0.00
2019-03-09T03:01:00.640Z,0.00
2019-03-09T03:02:00.674Z,0.00
2019-03-09T03:03:00.615Z,0.00
2019-03-09T03:04:00.546Z,0.00
2019-03-09T03:05:00.544Z,0.00
2019-03-09T03:06:00.510Z,0.00
2019-03-09T03:07:00.557Z,0.00
2019-03-09T03:08:00.529Z,0.00
2019-03-09T03:09:00.478Z,0.00
2019-03-09T03:10:00.521Z,0.00
2019-03-09T03:11:01.191Z,0.00
2019-03-09T03:12:00.485Z,0.00
2019-03-09T03:13:02.391Z,0.00
2019-03-09T03:14:00.420Z,0.00
2019-03-09T03:15:00.485Z,0.00
2019-03-09T03:16:00.457Z,0.00
2019-03-09T03:17:00.509Z,0.00
2019-03-09T03:18:02.379Z,0.00
2019-03-09T03:19:00.369Z,0.00
2019-03-09T03:20:00.490Z,0.00
2019-03-09T03:21:00.354Z,0.00
2019-03-09T03:22:00.382Z,0.00
2019-03-09T03:23:00.414Z,0.00
2019-03-09T03:24:00.331Z,0.00
2019-03-09T03:25:00.453Z,0.00
2019-03-09T03:26:00.359Z,0.00
2019-03-09T03:27:01.322Z,0.00
2019-03-09T03:28:00.300Z,0.00
2019-03-09T03:29:12.953Z,0.00
2019-03-09T03:30:00.546Z,0.00
2019-03-09T03:31:00.396Z,0.00
2019-03-09T03:32:00.283Z,0.00
2019-03-09T03:33:00.221Z,0.00
2019-03-09T03:34:01.930Z,0.00
2019-03-09T03:35:00.715Z,0.00
2019-03-09T03:36:00.314Z,0.00
2019-03-09T03:37:00.484Z,0.00
2019-03-09T03:38:00.301Z,0.00
2019-03-09T03:39:04.905Z,0.00
2019-03-09T03:40:00.339Z,0.00
2019-03-09T03:41:00.133Z,0.00
2019-03-09T03:42:00.209Z,0.00
2019-03-09T03:43:00.142Z,0.00
2019-03-09T03:44:00.511Z,0.00
2019-03-09T03:45:00.157Z,0.00
2019-03-09T03:46:00.081Z,0.00
2019-03-09T03:47:00.072Z,0.00
2019-03-09T03:48:00.110Z,0.00
2019-03-09T03:49:04.173Z,0.00
2019-03-09T03:50:00.031Z,0.00
2019-03-09T03:51:00.007Z,0.00
2019-03-09T03:52:00.082Z,0.00
2019-03-09T03:52:59.987Z,0.00
2019-03-09T03:54:00.173Z,0.00
2019-03-09T03:55:00.029Z,0.00
2019-03-09T03:55:59.952Z,0.00
2019-03-09T03:57:00.461Z,0.00
2019-03-09T03:58:00.089Z,0.00
2019-03-09T03:58:59.921Z,0.00
2019-03-09T04:00:01.903Z,0.00
2019-03-09T04:00:59.926Z,0.00
2019-03-09T04:01:59.889Z,0.00
2019-03-09T04:02:59.890Z,0.00
2019-03-09T04:03:59.882Z,0.00
2019-03-09T04:04:59.871Z,0.00
2019-03-09T04:06:01.427Z,0.00
2019-03-09T04:06:59.832Z,0.00
2019-03-09T04:07:59.852Z,0.00
2019-03-09T04:08:59.818Z,0.00
2019-03-09T04:09:59.794Z,0.00
2019-03-09T04:11:06.022Z,0.00
2019-03-09T04:11:59.774Z,0.00
2019-03-09T04:12:59.772Z,0.00
2019-03-09T04:13:59.757Z,0.00
2019-03-09T04:14:59.857Z,0.00
2019-03-09T04:15:59.805Z,0.00
2019-03-09T04:17:00.709Z,0.00
2019-03-09T04:17:59.824Z,0.00
2019-03-09T04:18:59.718Z,0.00
2019-03-09T04:19:59.811Z,0.00
2019-03-09T04:21:02.763Z,0.00
2019-03-09T04:21:59.670Z,0.00
2019-03-09T04:22:59.667Z,0.00
2019-03-09T04:23:59.948Z,0.00
2019-03-09T04:24:59.635Z,0.00
2019-03-09T04:26:01.442Z,0.00
2019-03-09T04:26:59.796Z,0.00
2019-03-09T04:27:59.660Z,0.00
2019-03-09T04:28:59.597Z,0.00
2019-03-09T04:29:59.597Z,0.00
2019-03-09T04:31:00.502Z,0.00
2019-03-09T04:31:59.736Z,0.00
2019-03-09T04:32:59.573Z,0.00
2019-03-09T04:33:59.598Z,0.00
2019-03-09T04:34:59.532Z,0.00
2019-03-09T04:35:59.587Z,0.00
2019-03-09T04:36:59.589Z,0.00
2019-03-09T04:37:59.511Z,0.00
2019-03-09T04:39:00.063Z,0.00
2019-03-09T04:40:00.473Z,0.00
2019-03-09T04:40:59.458Z,0.00
2019-03-09T04:41:59.544Z,0.00
2019-03-09T04:43:00.508Z,0.00
2019-03-09T04:43:59.619Z,0.00
2019-03-09T04:44:59.425Z,0.00
2019-03-09T04:45:59.416Z,0.00
2019-03-09T04:46:59.496Z,0.00
2019-03-09T04:48:01.466Z,0.00
2019-03-09T04:48:59.660Z,0.00
2019-03-09T04:49:59.376Z,0.00
2019-03-09T04:50:59.364Z,0.00
2019-03-09T04:51:59.360Z,0.00
2019-03-09T04:52:59.387Z,0.00
2019-03-09T04:54:00.944Z,0.00
2019-03-09T04:54:59.315Z,0.00
2019-03-09T04:56:00.688Z,0.00
2019-03-09T04:56:59.372Z,0.00
2019-03-09T04:57:59.332Z,0.00
2019-03-09T04:59:04.437Z,0.00
2019-03-09T04:59:59.289Z,0.00
2019-03-09T05:00:59.417Z,0.00
2019-03-09T05:01:59.501Z,0.00
2019-03-09T05:02:59.239Z,0.00
2019-03-09T05:03:59.322Z,0.00
2019-03-09T05:04:59.228Z,0.00
2019-03-09T05:05:59.206Z,0.00
2019-03-09T05:06:59.175Z,0.00
2019-03-09T05:07:59.365Z,0.00
2019-03-09T05:08:59.187Z,0.00
2019-03-09T05:09:59.247Z,0.00
2019-03-09T05:10:59.138Z,0.00
2019-03-09T05:11:59.183Z,0.00
2019-03-09T05:12:59.118Z,0.00
2019-03-09T05:13:59.187Z,0.00
2019-03-09T05:14:59.950Z,0.00
2019-03-09T05:15:59.082Z,0.00
2019-03-09T05:16:59.230Z,0.00
2019-03-09T05:17:59.942Z,0.00
2019-03-09T05:18:59.118Z,0.00
2019-03-09T05:19:59.044Z,0.00
2019-03-09T05:20:59.062Z,0.00
2019-03-09T05:21:59.131Z,0.00
2019-03-09T05:22:59.141Z,0.00
2019-03-09T05:23:59.023Z,0.00
2019-03-09T05:24:58.982Z,0.00
2019-03-09T05:25:59.075Z,0.00
2019-03-09T05:27:00.788Z,0.00
2019-03-09T05:27:59.014Z,0.00
2019-03-09T05:28:59.086Z,4.00
2019-03-09T05:29:58.929Z,4.00
2019-03-09T05:31:00.927Z,0.00
2019-03-09T05:31:58.899Z,4.00
2019-03-09T05:32:59.028Z,4.00
2019-03-09T05:33:58.906Z,8.00
2019-03-09T05:34:58.879Z,4.00
2019-03-09T05:35:58.901Z,8.00
2019-03-09T05:36:58.929Z,12.00
2019-03-09T05:37:58.924Z,12.00
2019-03-09T05:38:58.870Z,16.00
2019-03-09T05:39:58.828Z,20.00
2019-03-09T05:40:58.815Z,24.00
2019-03-09T05:41:58.800Z,28.00
2019-03-09T05:42:59.456Z,36.00
2019-03-09T05:43:58.790Z,36.00
2019-03-09T05:44:58.865Z,44.00
2019-03-09T05:45:59.066Z,52.00
2019-03-09T05:46:58.846Z,64.00
2019-03-09T05:47:59.437Z,76.00
2019-03-09T05:48:58.753Z,92.00
2019-03-09T05:49:58.700Z,92.00
2019-03-09T05:50:58.699Z,96.00
2019-03-09T05:51:58.683Z,120.00
2019-03-09T05:52:59.441Z,124.00
2019-03-09T05:53:58.658Z,132.00
2019-03-09T05:54:58.693Z,156.00
2019-03-09T05:55:58.650Z,192.00
2019-03-09T05:56:58.655Z,216.00
2019-03-09T05:57:59.682Z,256.00
2019-03-09T05:58:58.599Z,300.00
2019-03-09T05:59:58.697Z,348.00
2019-03-09T06:00:58.589Z,388.00
2019-03-09T06:01:58.571Z,408.00
2019-03-09T06:02:58.627Z,432.00
2019-03-09T06:04:00.238Z,508.00
2019-03-09T06:04:58.539Z,544.00
2019-03-09T06:05:58.532Z,584.00
2019-03-09T06:06:58.540Z,620.00
2019-03-09T06:07:58.508Z,680.00
2019-03-09T06:09:01.244Z,740.00
2019-03-09T06:09:59.496Z,812.00
2019-03-09T06:10:58.476Z,856.00
2019-03-09T06:11:58.466Z,924.00
2019-03-09T06:12:59.472Z,1000.00
2019-03-09T06:13:58.454Z,1080.00
2019-03-09T06:14:58.454Z,1164.00
2019-03-09T06:15:58.510Z,1268.00
2019-03-09T06:16:58.417Z,1332.00
2019-03-09T06:17:58.407Z,1420.00
2019-03-09T06:18:58.442Z,1536.00
2019-03-09T06:19:58.420Z,1620.00
2019-03-09T06:20:59.213Z,1788.00
2019-03-09T06:21:58.348Z,1900.00
2019-03-09T06:22:58.389Z,1948.00
2019-03-09T06:23:59.947Z,2024.00
2019-03-09T06:24:58.347Z,2108.00
2019-03-09T06:25:58.410Z,2136.00
2019-03-09T06:26:58.300Z,2052.00
2019-03-09T06:27:58.287Z,2052.00
2019-03-09T06:28:58.317Z,2088.00
2019-03-09T06:29:58.285Z,2152.00
2019-03-09T06:30:58.255Z,2104.00
2019-03-09T06:31:58.257Z,2272.00
2019-03-09T06:32:58.237Z,2524.00
2019-03-09T06:33:58.286Z,2604.00
2019-03-09T06:34:58.210Z,2528.00
2019-03-09T06:35:58.205Z,2384.00
2019-03-09T06:36:58.223Z,2248.00
2019-03-09T06:37:58.206Z,2172.00
2019-03-09T06:38:58.177Z,2244.00
2019-03-09T06:39:58.206Z,2492.00
2019-03-09T06:41:03.016Z,2656.00
2019-03-09T06:41:59.242Z,2756.00
2019-03-09T06:42:58.122Z,2916.00
2019-03-09T06:43:58.116Z,3072.00
2019-03-09T06:44:59.877Z,3200.00
2019-03-09T06:45:58.093Z,3320.00
2019-03-09T06:46:58.085Z,3564.00
2019-03-09T06:47:58.122Z,3832.00
2019-03-09T06:48:58.132Z,3932.00
2019-03-09T06:49:58.088Z,4004.00
2019-03-09T06:51:04.712Z,4208.00
2019-03-09T06:51:58.052Z,4684.00
2019-03-09T06:52:58.006Z,5252.00
2019-03-09T06:53:58.715Z,5520.00
2019-03-09T06:54:58.042Z,5392.00
2019-03-09T06:55:57.976Z,5204.00
2019-03-09T06:56:57.967Z,5144.00
2019-03-09T06:57:58.836Z,5508.00
2019-03-09T06:58:58.009Z,5956.00
2019-03-09T06:59:57.997Z,6064.00
2019-03-09T07:00:57.937Z,5880.00
2019-03-09T07:01:57.913Z,5740.00
2019-03-09T07:02:57.915Z,5744.00
2019-03-09T07:03:58.071Z,5900.00
2019-03-09T07:04:57.895Z,5892.00
2019-03-09T07:05:57.950Z,5668.00
2019-03-09T07:06:57.870Z,5400.00
2019-03-09T07:07:57.862Z,5288.00
2019-03-09T07:08:57.831Z,5092.00
2019-03-09T07:09:58.050Z,5128.00
2019-03-09T07:10:57.858Z,5032.00
2019-03-09T07:11:57.957Z,4472.00
2019-03-09T07:12:57.829Z,3876.00
2019-03-09T07:13:57.781Z,4024.00
2019-03-09T07:14:58.725Z,4304.00
2019-03-09T07:15:58.932Z,4800.00
2019-03-09T07:16:57.862Z,5140.00
2019-03-09T07:17:57.895Z,5024.00
2019-03-09T07:18:57.744Z,4552.00
2019-03-09T07:19:57.797Z,4084.00
2019-03-09T07:20:57.750Z,5808.00
2019-03-09T07:21:57.731Z,6876.00
2019-03-09T07:22:57.759Z,7892.00
2019-03-09T07:23:57.680Z,7956.00
2019-03-09T07:24:57.652Z,6796.00
2019-03-09T07:25:57.643Z,7064.00
2019-03-09T07:26:57.675Z,8284.00
2019-03-09T07:27:57.628Z,8012.00
2019-03-09T07:28:57.708Z,7852.00
2019-03-09T07:29:57.620Z,8228.00
2019-03-09T07:30:57.583Z,9040.00
2019-03-09T07:31:57.647Z,9708.00
2019-03-09T07:32:57.592Z,10012.00
2019-03-09T07:33:57.567Z,10196.00
2019-03-09T07:34:58.235Z,10248.00
2019-03-09T07:35:57.567Z,9752.00
2019-03-09T07:36:57.589Z,7748.00
2019-03-09T07:37:57.577Z,6588.00
2019-03-09T07:38:57.505Z,5984.00
2019-03-09T07:40:00.335Z,6988.00
2019-03-09T07:40:57.473Z,7164.00
2019-03-09T07:41:57.511Z,6544.00
2019-03-09T07:42:59.473Z,6964.00
2019-03-09T07:43:57.437Z,7052.00
2019-03-09T07:44:57.494Z,5868.00
2019-03-09T07:45:57.461Z,7508.00
2019-03-09T07:46:57.412Z,8148.00
2019-03-09T07:47:57.504Z,8828.00
2019-03-09T07:48:57.382Z,9204.00
2019-03-09T07:49:57.433Z,9564.00
2019-03-09T07:50:57.389Z,8976.00
2019-03-09T07:51:57.376Z,9700.00
2019-03-09T07:52:58.956Z,10524.00
2019-03-09T07:53:57.348Z,10608.00
2019-03-09T07:54:57.317Z,10548.00
2019-03-09T07:55:57.372Z,9820.00
2019-03-09T07:56:57.303Z,9816.00
2019-03-09T07:57:57.320Z,9632.00
2019-03-09T07:58:57.325Z,8784.00
2019-03-09T07:59:57.277Z,9092.00
2019-03-09T08:00:57.249Z,9868.00
2019-03-09T08:01:57.360Z,9864.00
2019-03-09T08:02:57.314Z,11104.00
2019-03-09T08:03:57.218Z,12024.00
2019-03-09T08:04:57.217Z,12868.00
2019-03-09T08:05:57.231Z,13132.00
2019-03-09T08:06:57.324Z,11756.00
2019-03-09T08:07:57.985Z,12216.00
2019-03-09T08:08:57.207Z,13808.00
2019-03-09T08:09:57.159Z,15124.00
2019-03-09T08:10:57.174Z,15568.00
2019-03-09T08:11:57.130Z,16176.00
2019-03-09T08:12:57.967Z,17344.00
2019-03-09T08:13:57.228Z,17184.00
2019-03-09T08:14:57.097Z,16200.00
2019-03-09T08:15:57.118Z,15484.00
2019-03-09T08:16:57.075Z,13480.00
2019-03-09T08:17:57.130Z,12020.00
2019-03-09T08:18:57.082Z,11156.00
2019-03-09T08:19:57.047Z,10820.00
2019-03-09T08:20:57.166Z,10332.00
2019-03-09T08:21:57.108Z,9720.00
2019-03-09T08:22:59.012Z,9252.00
2019-03-09T08:23:57.021Z,9068.00
2019-03-09T08:24:57.008Z,9104.00
2019-03-09T08:25:57.024Z,9248.00
2019-03-09T08:26:56.969Z,9376.00
2019-03-09T08:27:57.031Z,9364.00
2019-03-09T08:28:56.947Z,9532.00
2019-03-09T08:29:56.945Z,9800.00
2019-03-09T08:30:56.934Z,8740.00
2019-03-09T08:31:56.952Z,9148.00
2019-03-09T08:32:57.460Z,8504.00
2019-03-09T08:33:56.907Z,8368.00
2019-03-09T08:34:56.902Z,10600.00
2019-03-09T08:35:56.898Z,12728.00
2019-03-09T08:36:56.856Z,11188.00
2019-03-09T08:37:56.912Z,10664.00
2019-03-09T08:38:56.869Z,10640.00
2019-03-09T08:39:56.832Z,9788.00
2019-03-09T08:40:56.820Z,10692.00
2019-03-09T08:41:56.823Z,10620.00
2019-03-09T08:42:57.479Z,11860.00
2019-03-09T08:43:57.734Z,13892.00
2019-03-09T08:44:56.771Z,14708.00
2019-03-09T08:45:56.768Z,14348.00
2019-03-09T08:46:56.798Z,15236.00
2019-03-09T08:48:00.228Z,15120.00
2019-03-09T08:48:56.731Z,15080.00
2019-03-09T08:49:56.777Z,16272.00
2019-03-09T08:50:56.733Z,16896.00
2019-03-09T08:51:56.725Z,16028.00
2019-03-09T08:52:57.473Z,17152.00
2019-03-09T08:53:56.714Z,19456.00
2019-03-09T08:54:56.896Z,17536.00
2019-03-09T08:55:56.654Z,16296.00
2019-03-09T08:56:56.679Z,15592.00
2019-03-09T08:57:57.490Z,14932.00
2019-03-09T08:58:56.743Z,14892.00
2019-03-09T08:59:56.772Z,15468.00
2019-03-09T09:00:56.735Z,16092.00
2019-03-09T09:01:56.589Z,17056.00
2019-03-09T09:02:56.570Z,17632.00
2019-03-09T09:03:56.613Z,18304.00
2019-03-09T09:04:56.536Z,19488.00
2019-03-09T09:05:56.547Z,20576.00
2019-03-09T09:06:56.530Z,19904.00
2019-03-09T09:07:56.548Z,18336.00
2019-03-09T09:09:07.218Z,16672.00
2019-03-09T09:09:56.482Z,14960.00
2019-03-09T09:10:57.544Z,14180.00
2019-03-09T09:11:56.457Z,14148.00
2019-03-09T09:12:56.502Z,14740.00
2019-03-09T09:14:00.471Z,15492.00
2019-03-09T09:14:56.433Z,16008.00
2019-03-09T09:15:56.420Z,16028.00
2019-03-09T09:16:56.409Z,15008.00
2019-03-09T09:17:57.228Z,14000.00
2019-03-09T09:18:56.465Z,13312.00
2019-03-09T09:19:56.461Z,13296.00
2019-03-09T09:20:56.409Z,13792.00
2019-03-09T09:21:56.354Z,13720.00
2019-03-09T09:22:56.368Z,13436.00
2019-03-09T09:23:56.390Z,13980.00
2019-03-09T09:24:56.336Z,15420.00
2019-03-09T09:25:56.327Z,16992.00
2019-03-09T09:26:56.310Z,17472.00
2019-03-09T09:27:56.393Z,17088.00
2019-03-09T09:28:56.323Z,18048.00
2019-03-09T09:29:56.264Z,20896.00
2019-03-09T09:30:56.341Z,21152.00
2019-03-09T09:31:56.309Z,24672.00
2019-03-09T09:32:56.270Z,27040.00
2019-03-09T09:33:58.402Z,28992.00
2019-03-09T09:34:56.226Z,25632.00
2019-03-09T09:35:56.324Z,23136.00
2019-03-09T09:36:56.198Z,22784.00
2019-03-09T09:37:56.217Z,20544.00
2019-03-09T09:38:56.299Z,18464.00
2019-03-09T09:39:56.203Z,16084.00
2019-03-09T09:40:56.151Z,13760.00
2019-03-09T09:41:56.126Z,13364.00
2019-03-09T09:42:56.120Z,13604.00
2019-03-09T09:43:56.164Z,14080.00
2019-03-09T09:44:57.126Z,14512.00
2019-03-09T09:45:56.120Z,14384.00
2019-03-09T09:46:56.245Z,13664.00
2019-03-09T09:47:56.062Z,12844.00
2019-03-09T09:48:56.069Z,12060.00
2019-03-09T09:49:58.060Z,11520.00
2019-03-09T09:50:56.034Z,11472.00
2019-03-09T09:51:56.065Z,11052.00
2019-03-09T09:52:56.030Z,10584.00
2019-03-09T09:53:55.999Z,10384.00
2019-03-09T09:54:56.982Z,10372.00
2019-03-09T09:55:56.044Z,10176.00
2019-03-09T09:56:56.070Z,9968.00
2019-03-09T09:57:56.051Z,9824.00
2019-03-09T09:58:55.933Z,10072.00
2019-03-09T09:59:55.997Z,10632.00
2019-03-09T10:00:56.256Z,11084.00
2019-03-09T10:01:55.989Z,11592.00
2019-03-09T10:02:55.928Z,12320.00
2019-03-09T10:03:55.902Z,13120.00
2019-03-09T10:04:55.916Z,13792.00
2019-03-09T10:05:55.901Z,14780.00
2019-03-09T10:06:55.877Z,15464.00
2019-03-09T10:07:56.022Z,15768.00
2019-03-09T10:08:55.834Z,15916.00
2019-03-09T10:09:56.485Z,15692.00
2019-03-09T10:10:55.905Z,14664.00
2019-03-09T10:11:56.228Z,14880.00
2019-03-09T10:12:56.235Z,14732.00
2019-03-09T10:13:55.779Z,14324.00
2019-03-09T10:14:55.821Z,14024.00
2019-03-09T10:15:55.757Z,14588.00
2019-03-09T10:16:55.740Z,16448.00
2019-03-09T10:17:55.736Z,17280.00
2019-03-09T10:18:55.710Z,17792.00
2019-03-09T10:20:01.490Z,18336.00
2019-03-09T10:20:56.366Z,17184.00
2019-03-09T10:21:55.780Z,16088.00
2019-03-09T10:23:03.417Z,17120.00
2019-03-09T10:23:56.673Z,17408.00
2019-03-09T10:24:55.720Z,18272.00
2019-03-09T10:25:55.635Z,18752.00
2019-03-09T10:26:55.720Z,20672.00
2019-03-09T10:27:55.625Z,22560.00
2019-03-09T10:28:55.603Z,23360.00
2019-03-09T10:29:55.678Z,23712.00
2019-03-09T10:30:55.736Z,23360.00
2019-03-09T10:31:55.668Z,23936.00
2019-03-09T10:32:55.557Z,24736.00
2019-03-09T10:33:55.548Z,24896.00
2019-03-09T10:34:56.503Z,24192.00
2019-03-09T10:35:55.576Z,23808.00
2019-03-09T10:36:56.227Z,24256.00
2019-03-09T10:37:55.519Z,22336.00
2019-03-09T10:38:55.515Z,20416.00
2019-03-09T10:39:56.194Z,15988.00
2019-03-09T10:40:55.707Z,17824.00
2019-03-09T10:41:55.693Z,18176.00
2019-03-09T10:42:55.531Z,18816.00
2019-03-09T10:43:55.761Z,19744.00
2019-03-09T10:44:57.013Z,21152.00
2019-03-09T10:45:55.430Z,22112.00
2019-03-09T10:46:55.402Z,22400.00
2019-03-09T10:47:55.411Z,21280.00
2019-03-09T10:48:55.386Z,20416.00
2019-03-09T10:49:55.448Z,19616.00
2019-03-09T10:50:55.383Z,18592.00
2019-03-09T10:51:55.340Z,18560.00
2019-03-09T10:52:55.380Z,18272.00
2019-03-09T10:53:55.320Z,18816.00
2019-03-09T10:54:55.995Z,19424.00
2019-03-09T10:55:55.309Z,21152.00
2019-03-09T10:56:55.283Z,21728.00
2019-03-09T10:57:55.278Z,21120.00
2019-03-09T10:58:55.271Z,19776.00
2019-03-09T10:59:58.741Z,18752.00
2019-03-09T11:00:55.282Z,17760.00
2019-03-09T11:01:55.296Z,17408.00
2019-03-09T11:02:55.259Z,17024.00
2019-03-09T11:03:55.297Z,16468.00
2019-03-09T11:04:56.024Z,16368.00
2019-03-09T11:05:55.202Z,16732.00
2019-03-09T11:06:55.367Z,17920.00
2019-03-09T11:07:55.233Z,19040.00
2019-03-09T11:08:55.227Z,20832.00
2019-03-09T11:09:56.029Z,21120.00
2019-03-09T11:10:55.271Z,21440.00
2019-03-09T11:11:55.305Z,23200.00
2019-03-09T11:12:55.115Z,33760.00
2019-03-09T11:13:55.124Z,27072.00
2019-03-09T11:15:06.567Z,24640.00
2019-03-09T11:15:55.078Z,25600.00
2019-03-09T11:16:55.088Z,21792.00
2019-03-09T11:17:55.284Z,23712.00
2019-03-09T11:18:55.128Z,18048.00
2019-03-09T11:19:55.125Z,16932.00
2019-03-09T11:20:55.077Z,17184.00
2019-03-09T11:21:55.020Z,20768.00
2019-03-09T11:22:55.047Z,26912.00
2019-03-09T11:23:55.078Z,25504.00
2019-03-09T11:25:03.152Z,19456.00
2019-03-09T11:26:00.075Z,19424.00
2019-03-09T11:26:54.989Z,16472.00
2019-03-09T11:27:54.945Z,13000.00
2019-03-09T11:28:54.952Z,13348.00
2019-03-09T11:29:55.034Z,13040.00
2019-03-09T11:30:59.012Z,17696.00
2019-03-09T11:31:54.962Z,17792.00
2019-03-09T11:32:54.886Z,24352.00
2019-03-09T11:33:54.868Z,28928.00
2019-03-09T11:34:54.871Z,35520.00
2019-03-09T11:35:54.892Z,21120.00
2019-03-09T11:36:54.857Z,17888.00
2019-03-09T11:37:54.827Z,20640.00
2019-03-09T11:38:54.833Z,23616.00
2019-03-09T11:39:54.910Z,23296.00
2019-03-09T11:41:00.851Z,20512.00
2019-03-09T11:41:55.142Z,17504.00
2019-03-09T11:42:54.833Z,16040.00
2019-03-09T11:43:54.760Z,16572.00
2019-03-09T11:44:54.745Z,14096.00
2019-03-09T11:45:56.904Z,13044.00
2019-03-09T11:46:56.767Z,14460.00
2019-03-09T11:47:57.325Z,20800.00
2019-03-09T11:48:54.709Z,21696.00
2019-03-09T11:49:54.696Z,23904.00
2019-03-09T11:51:00.518Z,23136.00
2019-03-09T11:51:54.668Z,26720.00
2019-03-09T11:52:54.694Z,36288.00
2019-03-09T11:53:54.648Z,19584.00
2019-03-09T11:54:54.673Z,20864.00
2019-03-09T11:55:55.514Z,19968.00
2019-03-09T11:56:54.628Z,27168.00
2019-03-09T11:57:54.657Z,16596.00
2019-03-09T11:58:54.588Z,17920.00
2019-03-09T11:59:54.610Z,18464.00
2019-03-09T12:00:54.606Z,18400.00
2019-03-09T12:01:54.823Z,21312.00
2019-03-09T12:02:54.614Z,26368.00
2019-03-09T12:03:54.839Z,21856.00
2019-03-09T12:04:54.529Z,17536.00
2019-03-09T12:06:08.203Z,20544.00
2019-03-09T12:06:54.499Z,23808.00
2019-03-09T12:07:54.505Z,17888.00
2019-03-09T12:08:54.554Z,19072.00
2019-03-09T12:09:54.473Z,11920.00
2019-03-09T12:10:54.491Z,11320.00
2019-03-09T12:11:54.532Z,12984.00
2019-03-09T12:12:54.448Z,12524.00
2019-03-09T12:13:54.437Z,9640.00
2019-03-09T12:14:54.488Z,7456.00
2019-03-09T12:15:59.319Z,9488.00
2019-03-09T12:16:54.436Z,12124.00
2019-03-09T12:17:54.391Z,14536.00
2019-03-09T12:18:54.376Z,13820.00
2019-03-09T12:19:54.404Z,22144.00
2019-03-09T12:21:00.753Z,33600.00
2019-03-09T12:21:54.413Z,72256.00
2019-03-09T12:23:01.069Z,59456.00
2019-03-09T12:23:55.480Z,22080.00
2019-03-09T12:24:54.331Z,21504.00
2019-03-09T12:25:54.426Z,19392.00
2019-03-09T12:26:54.407Z,19488.00
2019-03-09T12:27:54.275Z,23264.00
2019-03-09T12:28:54.259Z,22944.00
2019-03-09T12:29:54.273Z,29376.00